Time;durP1;ratioP1;P1;durP2;ratioP2;P2;SDS_P1;SDS_P2;PMS_P1;PMS_P2;Temp;Humidity;BMP_temperature;BMP_pressure;BME280_temperature;BME280_humidity;BME280_pressure;Samples;Min_cycle;Max_cycle;Signal;HPM_P1;HPM_P2
2021/05/03 00:00:00;;;;;;;0.30;0.30;;;;;;;10.39;100.00;99626.39;1727600;81;21170;-45
2021/05/03 00:02:29;;;;;;;0.55;0.55;;;;;;;10.35;100.00;99621.26;1726890;83;21133;-45
2021/05/03 00:04:56;;;;;;;0.40;0.40;;;;;;;10.30;100.00;99623.52;1756020;81;21161;-45
2021/05/03 00:07:23;;;;;;;3.60;0.80;;;;;;;10.24;100.00;99618.66;1756029;81;21414;-45
2021/05/03 00:09:51;;;;;;;0.72;0.72;;;;;;;10.19;100.00;99606.45;1753517;81;21134;-45
2021/05/03 00:12:19;;;;;;;2.87;1.05;;;;;;;10.14;100.00;99610.64;1727106;81;21157;-45
2021/05/03 00:14:49;;;;;;;0.72;0.72;;;;;;;10.11;100.00;99609.84;1726625;82;21149;-45
2021/05/03 00:17:18;;;;;;;0.20;0.15;;;;;;;10.08;100.00;99611.80;1743999;81;21489;-45
2021/05/03 00:19:48;;;;;;;0.40;0.40;;;;;;;10.05;100.00;99612.41;1727457;81;21154;-45
2021/05/03 00:22:16;;;;;;;0.10;0.10;;;;;;;10.02;100.00;99610.28;1755800;81;21165;-45
2021/05/03 00:24:44;;;;;;;0.80;0.80;;;;;;;10.01;100.00;99611.36;1732303;81;21572;-45
2021/05/03 00:27:12;;;;;;;1.47;0.42;;;;;;;10.00;100.00;99613.84;1737224;81;21122;-45
2021/05/03 00:29:42;;;;;;;0.17;0.17;;;;;;;9.98;100.00;99611.97;1760270;81;21149;-44
2021/05/03 00:32:09;;;;;;;0.42;0.42;;;;;;;9.96;100.00;99610.88;1762817;81;21091;-45
2021/05/03 00:34:37;;;;;;;0.80;0.62;;;;;;;9.95;100.00;99606.55;1712318;81;21162;-45
2021/05/03 00:37:04;;;;;;;0.45;0.45;;;;;;;9.95;100.00;99613.92;1762585;81;21130;-45
2021/05/03 00:39:32;;;;;;;0.45;0.45;;;;;;;9.93;100.00;99619.67;1739298;81;21138;-45
2021/05/03 00:41:59;;;;;;;0.30;0.30;;;;;;;9.93;100.00;99621.03;1753928;81;21117;-45
2021/05/03 00:44:28;;;;;;;0.70;0.70;;;;;;;9.95;100.00;99623.48;1754035;81;21169;-45
2021/05/03 00:46:58;;;;;;;0.78;0.60;;;;;;;9.94;100.00;99620.47;1732185;82;21169;-45
2021/05/03 00:49:26;;;;;;;0.40;0.40;;;;;;;9.94;100.00;99628.13;1732191;81;21167;-45
2021/05/03 00:51:53;;;;;;;0.72;0.47;;;;;;;9.92;100.00;99623.52;1744122;81;21105;-45
2021/05/03 00:54:21;;;;;;;0.03;0.03;;;;;;;9.91;100.00;99628.70;1711536;81;21149;-45
2021/05/03 00:56:48;;;;;;;0.75;0.75;;;;;;;9.89;100.00;99627.65;1732211;82;21115;-45
2021/05/03 00:59:16;;;;;;;0.53;0.47;;;;;;;9.87;100.00;99621.67;1732354;81;21596;-45
2021/05/03 01:01:44;;;;;;;0.60;0.60;;;;;;;9.86;100.00;99620.03;1738462;81;21114;-45
2021/05/03 01:04:12;;;;;;;0.80;0.80;;;;;;;9.87;100.00;99624.40;1744031;81;21113;-45
2021/05/03 01:06:39;;;;;;;0.85;0.82;;;;;;;9.94;100.00;99615.02;1762434;81;21117;-45
2021/05/03 01:09:07;;;;;;;0.60;0.60;;;;;;;10.03;100.00;99622.80;1760549;81;21106;-45
2021/05/03 01:11:36;;;;;;;1.10;1.00;;;;;;;10.10;100.00;99620.52;1744046;81;21173;-45
2021/05/03 01:14:04;;;;;;;0.75;0.53;;;;;;;10.17;100.00;99619.59;1754683;81;21142;-45
2021/05/03 01:16:31;;;;;;;6.03;2.08;;;;;;;10.26;100.00;99620.55;1762285;81;21110;-45
2021/05/03 01:18:59;;;;;;;2.17;1.95;;;;;;;10.42;100.00;99620.33;1749235;81;21114;-45
2021/05/03 01:21:27;;;;;;;1.75;1.47;;;;;;;10.61;100.00;99626.56;1733774;81;21095;-45
2021/05/03 01:23:55;;;;;;;2.98;1.77;;;;;;;10.79;100.00;99628.16;1732220;82;21145;-45
2021/05/03 01:26:22;;;;;;;0.88;0.88;;;;;;;10.98;100.00;99630.28;1732289;82;21536;-45
2021/05/03 01:28:50;;;;;;;1.27;1.17;;;;;;;11.13;100.00;99631.34;1732495;81;21146;-45
2021/05/03 01:31:17;;;;;;;5.08;2.20;;;;;;;11.24;100.00;99622.94;1754351;81;21576;-45
2021/05/03 01:33:45;;;;;;;1.35;0.57;;;;;;;11.34;100.00;99629.57;1762585;81;21141;-45
2021/05/03 01:36:12;;;;;;;0.93;0.90;;;;;;;11.45;100.00;99617.85;1745550;81;21153;-45
2021/05/03 01:38:40;;;;;;;0.70;0.70;;;;;;;11.51;100.00;99621.55;1749345;81;21936;-45
2021/05/03 01:41:08;;;;;;;1.50;1.00;;;;;;;11.53;100.00;99619.33;1759594;81;21605;-45
2021/05/03 01:43:35;;;;;;;0.28;0.28;;;;;;;11.58;100.00;99632.09;1758958;81;21146;-45
2021/05/03 01:46:03;;;;;;;2.22;1.15;;;;;;;11.60;100.00;99623.83;1732332;82;21114;-45
2021/05/03 01:48:31;;;;;;;1.05;0.90;;;;;;;11.65;100.00;99627.55;1760024;81;21173;-45
2021/05/03 01:50:59;;;;;;;3.62;1.57;;;;;;;11.68;100.00;99625.03;1758281;81;21149;-45
2021/05/03 01:53:28;;;;;;;2.25;1.72;;;;;;;11.72;100.00;99622.48;1750627;81;21266;-45
2021/05/03 01:55:57;;;;;;;0.23;0.23;;;;;;;11.74;100.00;99610.67;1759076;81;21173;-45
2021/05/03 01:58:25;;;;;;;1.42;1.37;;;;;;;11.78;100.00;99603.48;1734586;81;21158;-45
2021/05/03 02:00:56;;;;;;;2.27;1.65;;;;;;;11.81;100.00;99605.59;1732468;81;21581;-45
2021/05/03 02:03:25;;;;;;;0.90;0.90;;;;;;;11.86;100.00;99607.41;1732461;82;21166;-46
2021/05/03 02:05:54;;;;;;;1.77;1.50;;;;;;;11.91;100.00;99599.91;1743461;81;21621;-46
2021/05/03 02:08:22;;;;;;;1.07;0.85;;;;;;;11.95;100.00;99602.86;1729908;81;21174;-46
2021/05/03 02:10:50;;;;;;;1.15;1.00;;;;;;;11.98;100.00;99604.41;1738191;81;21621;-46
2021/05/03 02:13:18;;;;;;;0.65;0.65;;;;;;;12.00;100.00;99602.17;1731935;82;21765;-46
2021/05/03 02:15:48;;;;;;;1.67;1.37;;;;;;;12.01;100.00;99611.19;1753972;81;21212;-46
2021/05/03 02:18:17;;;;;;;0.68;0.68;;;;;;;12.02;100.00;99612.27;1762195;81;21134;-46
2021/05/03 02:20:45;;;;;;;0.60;0.60;;;;;;;12.01;100.00;99618.03;1759733;80;21150;-46
2021/05/03 02:23:13;;;;;;;1.20;0.93;;;;;;;11.99;100.00;99623.00;1758121;81;21137;-46
2021/05/03 02:25:40;;;;;;;1.95;1.47;;;;;;;12.04;100.00;99633.30;1736446;81;21141;-46
2021/05/03 02:28:11;;;;;;;1.95;1.52;;;;;;;12.10;100.00;99633.98;1760863;81;21158;-46
2021/05/03 02:30:39;;;;;;;1.70;1.42;;;;;;;12.12;100.00;99634.48;1749329;81;21122;-46
2021/05/03 02:33:07;;;;;;;0.50;0.40;;;;;;;12.16;100.00;99634.67;1740999;81;21110;-46
2021/05/03 02:35:34;;;;;;;1.20;1.10;;;;;;;12.19;100.00;99632.67;1762574;81;21150;-46
2021/05/03 02:38:07;;;;;;;7.22;1.07;;;;;;;12.18;100.00;99637.34;1736405;81;21169;-46
2021/05/03 02:40:35;;;;;;;1.98;1.85;;;;;;;12.19;100.00;99642.26;1732509;81;21151;-46
2021/05/03 02:43:03;;;;;;;0.30;0.30;;;;;;;12.19;100.00;99650.48;1750657;81;21110;-46
2021/05/03 02:45:30;;;;;;;1.60;1.50;;;;;;;12.18;100.00;99649.67;1762566;81;21123;-46
2021/05/03 02:47:59;;;;;;;0.95;0.60;;;;;;;12.19;100.00;99650.48;1760916;81;21461;-46
2021/05/03 02:50:27;;;;;;;1.05;0.95;;;;;;;12.18;100.00;99662.56;1762492;81;21694;-46
2021/05/03 02:52:56;;;;;;;0.62;0.62;;;;;;;12.20;100.00;99666.61;1762173;81;21137;-46
2021/05/03 02:55:24;;;;;;;9.38;1.10;;;;;;;12.24;100.00;99666.82;1758310;81;21146;-46
2021/05/03 02:57:53;;;;;;;0.80;0.80;;;;;;;12.26;100.00;99667.30;1733178;81;21426;-46
2021/05/03 03:00:30;;;;;;;0.60;0.60;;;;;;;12.32;100.00;99671.55;1738473;81;21556;-46
2021/05/03 03:02:57;;;;;;;2.37;1.25;;;;;;;12.37;100.00;99670.05;1730497;81;21185;-46
2021/05/03 03:05:26;;;;;;;1.32;0.75;;;;;;;12.45;100.00;99680.27;1753460;81;21134;-46
2021/05/03 03:07:54;;;;;;;1.02;1.02;;;;;;;12.52;100.00;99671.63;1732186;82;21126;-46
2021/05/03 03:10:23;;;;;;;0.78;0.78;;;;;;;12.60;100.00;99676.91;1749993;81;21612;-46
2021/05/03 03:12:50;;;;;;;1.30;1.05;;;;;;;12.72;100.00;99686.75;1730364;81;21482;-46
2021/05/03 03:15:19;;;;;;;0.53;0.53;;;;;;;12.81;100.00;99684.05;1754386;81;21069;-46
2021/05/03 03:17:51;;;;;;;1.30;1.20;;;;;;;12.88;100.00;99683.05;1743466;81;21146;-46
2021/05/03 03:20:19;;;;;;;2.22;1.75;;;;;;;12.97;100.00;99681.75;1746791;81;21131;-46
2021/05/03 03:22:47;;;;;;;1.80;1.65;;;;;;;13.05;100.00;99677.67;1756050;81;21181;-46
2021/05/03 03:25:15;;;;;;;4.87;1.45;;;;;;;13.13;100.00;99688.47;1786170;80;21205;-46
2021/05/03 03:27:43;;;;;;;1.25;1.15;;;;;;;13.20;100.00;99687.42;1749317;81;21589;-46
2021/05/03 03:30:12;;;;;;;2.25;1.85;;;;;;;13.27;100.00;99682.33;1758834;80;21131;-46
2021/05/03 03:32:44;;;;;;;0.72;0.68;;;;;;;13.33;100.00;99683.02;1756337;80;21537;-46
2021/05/03 03:35:15;;;;;;;0.57;0.57;;;;;;;13.39;100.00;99698.77;1772906;80;21171;-46
2021/05/03 03:37:44;;;;;;;0.78;0.78;;;;;;;13.44;100.00;99706.86;1765835;80;21122;-46
2021/05/03 03:40:13;;;;;;;0.60;0.60;;;;;;;13.49;100.00;99719.87;1775321;80;21139;-46
2021/05/03 03:42:40;;;;;;;1.15;1.12;;;;;;;13.54;100.00;99725.22;1787215;79;21518;-46
2021/05/03 03:45:09;;;;;;;0.60;0.60;;;;;;;13.62;100.00;99726.95;1784972;79;21181;-46
2021/05/03 03:47:38;;;;;;;1.02;1.02;;;;;;;13.66;100.00;99732.86;1769550;80;21442;-46
2021/05/03 03:50:07;;;;;;;0.50;0.50;;;;;;;13.73;100.00;99731.84;1786896;79;21181;-46
2021/05/03 03:52:34;;;;;;;2.45;2.27;;;;;;;13.80;100.00;99732.76;1765215;80;21147;-46
2021/05/03 03:55:04;;;;;;;1.17;0.72;;;;;;;13.86;100.00;99730.67;1762535;80;21130;-46
2021/05/03 03:57:32;;;;;;;0.85;0.85;;;;;;;13.91;100.00;99734.64;1785283;80;21161;-46
2021/05/03 03:59:59;;;;;;;0.85;0.85;;;;;;;13.95;100.00;99735.06;1785911;78;21134;-46
2021/05/03 04:02:28;;;;;;;0.85;0.68;;;;;;;14.00;100.00;99740.97;1785080;80;21131;-46
2021/05/03 04:07:45;;;;;;;3.33;1.02;;;;;;;14.10;100.00;99741.23;1787174;80;21143;-46
2021/05/03 04:26:21;;;;;;;0.37;0.37;;;;;;;14.34;100.00;99789.70;1760816;79;21129;-46
2021/05/03 04:28:50;;;;;;;1.27;1.17;;;;;;;14.40;100.00;99794.47;1762253;80;21166;-46
2021/05/03 04:31:18;;;;;;;1.65;1.02;;;;;;;14.46;100.00;99791.80;1778076;80;21589;-46
2021/05/03 04:33:47;;;;;;;1.12;0.93;;;;;;;14.52;100.00;99791.91;1786934;80;21593;-46
2021/05/03 04:36:15;;;;;;;1.07;0.70;;;;;;;14.56;100.00;99797.05;1772043;79;21162;-46
2021/05/03 04:38:43;;;;;;;0.62;0.62;;;;;;;14.62;100.00;99805.36;1756436;80;21510;-46
2021/05/03 04:41:10;;;;;;;2.85;1.42;;;;;;;14.68;100.00;99806.58;1738208;81;21162;-46
2021/05/03 04:43:38;;;;;;;2.47;2.27;;;;;;;14.73;100.00;99798.97;1739561;81;21149;-46
2021/05/03 04:46:06;;;;;;;0.20;0.20;;;;;;;14.79;100.00;99792.77;1787145;80;21167;-46
2021/05/03 04:48:33;;;;;;;0.65;0.65;;;;;;;14.84;100.00;99787.10;1784871;80;21146;-46
2021/05/03 04:51:01;;;;;;;1.32;0.98;;;;;;;14.90;100.00;99791.29;1764654;79;21431;-46
2021/05/03 04:53:30;;;;;;;0.65;0.65;;;;;;;14.95;98.93;99800.75;1756052;80;21238;-46
2021/05/03 04:56:00;;;;;;;1.35;0.75;;;;;;;15.03;97.23;99783.99;1727687;81;21210;-46
2021/05/03 04:58:28;;;;;;;2.70;1.12;;;;;;;15.12;96.02;99792.25;1763730;80;21210;-47
2021/05/03 05:00:56;;;;;;;0.80;0.80;;;;;;;15.18;95.15;99797.27;1785817;80;21154;-46
2021/05/03 05:03:23;;;;;;;1.90;1.80;;;;;;;15.32;94.02;99808.66;1784975;79;21124;-46
2021/05/03 05:05:52;;;;;;;0.42;0.42;;;;;;;15.44;93.05;99806.84;1787363;79;21154;-46
2021/05/03 05:08:22;;;;;;;0.57;0.42;;;;;;;15.56;90.95;99811.67;1757542;80;21537;-46
2021/05/03 05:10:49;;;;;;;0.30;0.30;;;;;;;15.69;90.45;99810.68;1785031;80;21202;-46
2021/05/03 05:13:17;;;;;;;0.82;0.60;;;;;;;15.86;88.04;99794.66;1787204;80;21657;-47
2021/05/03 05:15:45;;;;;;;0.30;0.30;;;;;;;15.96;85.45;99802.33;1787787;79;21158;-46
2021/05/03 05:18:14;;;;;;;2.40;1.00;;;;;;;15.96;84.20;99813.35;1777230;80;21438;-46
2021/05/03 05:20:42;;;;;;;0.62;0.57;;;;;;;15.93;82.14;99812.06;1776094;80;21134;-46
2021/05/03 05:23:11;;;;;;;0.40;0.40;;;;;;;15.88;80.91;99812.25;1762491;81;21528;-46
2021/05/03 05:25:39;;;;;;;1.60;0.55;;;;;;;15.78;80.18;99805.16;1762507;81;21102;-46
2021/05/03 05:28:07;;;;;;;0.35;0.35;;;;;;;15.67;80.41;99815.67;1759593;81;21130;-46
2021/05/03 05:30:35;;;;;;;0.68;0.68;;;;;;;15.59;81.15;99808.83;1738944;81;21437;-46
2021/05/03 05:33:03;;;;;;;0.30;0.30;;;;;;;15.52;81.55;99809.91;1734512;81;21166;-46
2021/05/03 05:35:31;;;;;;;0.70;0.70;;;;;;;15.47;82.11;99811.69;1761628;81;21141;-46
2021/05/03 05:37:58;;;;;;;0.23;0.23;;;;;;;15.42;81.91;99814.61;1760490;81;21177;-46
2021/05/03 05:40:26;;;;;;;0.30;0.30;;;;;;;15.37;81.66;99817.54;1762321;81;21134;-46
2021/05/03 05:42:54;;;;;;;1.25;0.88;;;;;;;15.29;81.40;99832.13;1762425;81;21189;-46
2021/05/03 05:45:24;;;;;;;0.55;0.20;;;;;;;15.23;81.56;99838.92;1742660;81;21212;-46
2021/05/03 05:47:51;;;;;;;1.02;0.93;;;;;;;15.17;81.60;99837.48;1751812;81;21178;-46
2021/05/03 05:50:19;;;;;;;0.60;0.37;;;;;;;15.13;82.01;99849.70;1756945;81;21141;-47
2021/05/03 05:52:47;;;;;;;1.27;0.95;;;;;;;15.12;82.06;99856.34;1758327;80;21147;-47
2021/05/03 05:55:14;;;;;;;0.57;0.55;;;;;;;15.13;82.15;99854.39;1744058;81;21104;-46
2021/05/03 05:57:42;;;;;;;1.65;0.45;;;;;;;15.13;82.72;99857.15;1733904;81;21115;-47
2021/05/03 06:00:11;;;;;;;0.37;0.37;;;;;;;15.15;83.11;99859.02;1736648;81;21109;-47
2021/05/03 06:02:43;;;;;;;0.50;0.50;;;;;;;15.19;83.43;99864.13;1758509;81;21165;-46
2021/05/03 06:05:11;;;;;;;0.40;0.40;;;;;;;15.17;82.90;99860.30;1737421;81;21477;-47
2021/05/03 06:07:38;;;;;;;1.30;0.40;;;;;;;15.12;82.94;99863.22;1734460;81;21450;-47
2021/05/03 06:10:08;;;;;;;0.85;0.85;;;;;;;15.08;83.14;99864.19;1759194;80;21599;-47
2021/05/03 06:12:36;;;;;;;0.35;0.35;;;;;;;15.02;83.30;99875.36;1761154;81;21213;-46
2021/05/03 06:15:06;;;;;;;0.50;0.37;;;;;;;14.98;83.46;99877.13;1762545;81;21181;-47
2021/05/03 06:17:34;;;;;;;4.20;1.27;;;;;;;14.97;83.33;99871.97;1762576;81;21146;-47
2021/05/03 06:20:01;;;;;;;0.95;0.78;;;;;;;14.96;83.26;99878.58;1760355;81;21134;-46
2021/05/03 06:22:32;;;;;;;0.30;0.30;;;;;;;14.94;82.77;99872.05;1755370;80;21146;-46
2021/05/03 06:25:02;;;;;;;0.15;0.15;;;;;;;14.94;81.93;99880.30;1754225;81;21146;-46
2021/05/03 06:27:30;;;;;;;0.17;0.17;;;;;;;14.94;81.12;99884.42;1756786;81;21158;-47
2021/05/03 06:29:58;;;;;;;0.00;0.00;;;;;;;14.91;80.70;99892.50;1752978;81;21154;-46
2021/05/03 06:32:26;;;;;;;0.08;0.08;;;;;;;14.87;79.85;99897.05;1727009;82;21792;-47
2021/05/03 06:34:54;;;;;;;0.88;0.42;;;;;;;14.82;78.63;99899.38;1728517;81;21161;-46
2021/05/03 06:37:22;;;;;;;0.47;0.47;;;;;;;14.76;77.77;99896.52;1728187;81;21185;-47
2021/05/03 06:39:50;;;;;;;1.65;0.68;;;;;;;14.68;77.49;99909.13;1744087;81;21141;-47
2021/05/03 06:42:17;;;;;;;0.25;0.25;;;;;;;14.60;77.79;99910.72;1726791;82;21138;-46
2021/05/03 06:44:45;;;;;;;0.33;0.33;;;;;;;14.55;78.36;99915.00;1738678;81;21406;-47
2021/05/03 06:47:15;;;;;;;0.33;0.33;;;;;;;14.53;78.47;99917.25;1756952;81;21143;-47
2021/05/03 06:49:43;;;;;;;1.00;0.75;;;;;;;14.53;79.08;99918.63;1734366;81;21142;-47
2021/05/03 06:52:11;;;;;;;0.05;0.05;;;;;;;14.58;79.20;99918.48;1728606;81;21178;-47
2021/05/03 06:54:40;;;;;;;0.20;0.20;;;;;;;14.62;79.64;99922.22;1733930;81;21079;-47
2021/05/03 06:57:08;;;;;;;1.45;0.47;;;;;;;14.69;80.03;99920.92;1755613;81;21118;-46
2021/05/03 06:59:35;;;;;;;1.12;1.02;;;;;;;14.74;79.56;99916.11;1727181;81;21165;-46
2021/05/03 07:02:03;;;;;;;0.68;0.47;;;;;;;14.80;78.43;99919.51;1733417;81;21155;-47
2021/05/03 07:04:30;;;;;;;1.85;0.90;;;;;;;14.87;77.84;99928.67;1726659;81;21152;-46
2021/05/03 07:06:58;;;;;;;1.45;0.72;;;;;;;14.91;76.20;99935.14;1741649;81;21102;-47
2021/05/03 07:09:25;;;;;;;0.15;0.15;;;;;;;14.95;75.99;99934.75;1729478;81;21569;-46
2021/05/03 07:11:53;;;;;;;0.10;0.10;;;;;;;15.01;75.41;99931.53;1739307;81;21461;-46
2021/05/03 07:14:21;;;;;;;0.30;0.30;;;;;;;15.10;75.29;99932.91;1756807;81;21110;-46
2021/05/03 07:16:48;;;;;;;1.85;0.98;;;;;;;15.20;73.83;99931.78;1735311;81;21129;-46
2021/05/03 07:19:16;;;;;;;0.23;0.23;;;;;;;15.26;72.34;99931.87;1742479;81;21146;-46
2021/05/03 07:21:46;;;;;;;1.30;0.68;;;;;;;15.34;71.64;99931.06;1726998;81;21165;-46
2021/05/03 07:24:14;;;;;;;1.92;0.70;;;;;;;15.40;70.64;99933.88;1725977;81;21142;-46
2021/05/03 07:26:41;;;;;;;0.65;0.65;;;;;;;15.44;68.90;99927.17;1725046;81;21142;-46
2021/05/03 07:29:11;;;;;;;0.30;0.30;;;;;;;15.47;68.35;99931.45;1734356;81;21149;-46
2021/05/03 07:31:39;;;;;;;0.53;0.45;;;;;;;15.59;68.82;99928.62;1747014;81;21117;-46
2021/05/03 07:34:07;;;;;;;0.47;0.45;;;;;;;15.75;68.02;99928.94;1737876;81;20972;-46
2021/05/03 07:36:35;;;;;;;0.33;0.33;;;;;;;15.84;67.13;99929.17;1755841;81;21550;-46
2021/05/03 07:39:05;;;;;;;0.30;0.30;;;;;;;15.85;65.40;99923.92;1733472;81;21562;-46
2021/05/03 07:41:34;;;;;;;0.57;0.45;;;;;;;15.81;65.08;99920.19;1739534;81;21434;-46
2021/05/03 07:44:02;;;;;;;0.40;0.40;;;;;;;15.76;65.27;99916.81;1738427;81;21130;-46
2021/05/03 07:46:30;;;;;;;0.53;0.28;;;;;;;15.71;63.29;99918.36;1755857;81;21133;-46
2021/05/03 07:48:59;;;;;;;0.20;0.10;;;;;;;15.65;61.50;99913.53;1754974;81;21138;-46
2021/05/03 07:51:27;;;;;;;0.10;0.10;;;;;;;15.64;61.68;99916.06;1745372;81;21146;-46
2021/05/03 07:53:55;;;;;;;0.98;0.42;;;;;;;15.74;63.43;99908.05;1744799;81;21418;-46
2021/05/03 07:56:24;;;;;;;0.37;0.17;;;;;;;15.92;63.73;99916.51;1729856;81;21130;-46
2021/05/03 07:58:51;;;;;;;1.12;1.12;;;;;;;16.16;63.29;99918.72;1734893;81;21092;-47
2021/05/03 08:01:19;;;;;;;0.60;0.37;;;;;;;16.34;62.21;99907.04;1740835;81;21186;-47
2021/05/03 08:03:47;;;;;;;0.37;0.37;;;;;;;16.41;61.23;99910.67;1691869;84;21172;-46
2021/05/03 08:06:15;;;;;;;0.20;0.20;;;;;;;16.44;59.37;99916.31;1708044;83;21106;-47
2021/05/03 08:08:46;;;;;;;2.42;0.60;;;;;;;16.42;59.34;99923.30;1736455;81;21134;-46
2021/05/03 08:11:15;;;;;;;0.10;0.10;;;;;;;16.44;59.90;99923.21;1704072;83;21489;-46
2021/05/03 08:13:44;;;;;;;0.20;0.10;;;;;;;16.48;58.76;99945.44;1736399;81;21146;-46
2021/05/03 08:16:16;;;;;;;0.20;0.20;;;;;;;16.52;58.66;99957.43;1704746;83;21206;-46
2021/05/03 08:18:43;;;;;;;0.25;0.25;;;;;;;16.60;57.89;99954.39;1736731;81;21129;-47
2021/05/03 08:21:11;;;;;;;0.30;0.20;;;;;;;16.70;57.88;99950.67;1726569;81;21202;-46
2021/05/03 08:23:40;;;;;;;0.35;0.20;;;;;;;16.84;58.46;99942.20;1748385;81;21115;-46
2021/05/03 08:26:08;;;;;;;0.10;0.10;;;;;;;17.02;57.36;99944.28;1745821;81;21137;-47
2021/05/03 08:28:36;;;;;;;0.40;0.40;;;;;;;17.14;57.75;99936.08;1750761;81;21204;-47
2021/05/03 08:31:03;;;;;;;0.20;0.20;;;;;;;17.32;57.39;99940.88;1735887;81;21445;-46
2021/05/03 08:33:31;;;;;;;0.30;0.30;;;;;;;17.45;55.27;99937.61;1715116;80;21201;-47
2021/05/03 08:35:59;;;;;;;0.10;0.10;;;;;;;17.40;55.86;99946.10;1713247;81;21129;-47
2021/05/03 08:38:26;;;;;;;0.17;0.17;;;;;;;17.24;56.34;99938.20;1747397;81;21155;-46
2021/05/03 08:40:56;;;;;;;0.40;0.40;;;;;;;17.11;57.43;99945.03;1751363;81;21165;-47
2021/05/03 08:43:23;;;;;;;0.10;0.10;;;;;;;17.09;57.98;99939.61;1741159;81;21110;-46
2021/05/03 08:45:53;;;;;;;0.10;0.10;;;;;;;17.09;57.65;99944.56;1745649;81;21126;-47
2021/05/03 08:48:38;;;;;;;0.30;0.30;;;;;;;17.15;55.77;99948.72;1754650;81;21157;-47
2021/05/03 08:53:39;;;;;;;0.20;0.10;;;;;;;17.44;54.16;99948.43;1740035;81;21222;-46
2021/05/03 08:56:06;;;;;;;0.53;0.20;;;;;;;17.50;52.81;99953.97;1747747;81;21126;-47
2021/05/03 08:58:38;;;;;;;2.05;0.60;;;;;;;17.47;51.64;99954.66;1745288;81;20975;-46
2021/05/03 09:01:06;;;;;;;0.37;0.37;;;;;;;17.48;52.65;99957.67;1742426;81;21414;-47
2021/05/03 09:03:34;;;;;;;0.20;0.20;;;;;;;17.67;52.22;99966.83;1748288;81;21150;-46
2021/05/03 09:06:04;;;;;;;0.10;0.10;;;;;;;17.86;51.54;99963.61;1743263;81;21124;-47
2021/05/03 09:08:32;;;;;;;0.08;0.08;;;;;;;18.09;52.24;99953.53;1755056;81;21117;-46
2021/05/03 09:10:59;;;;;;;0.10;0.10;;;;;;;18.31;51.33;99960.61;1745047;81;21430;-46
2021/05/03 09:13:30;;;;;;;0.15;0.15;;;;;;;18.45;49.19;99972.97;1749288;81;21765;-46
2021/05/03 09:16:17;;;;;;;0.65;0.53;;;;;;;18.36;48.90;99966.72;1746393;81;21129;-46
2021/05/03 09:18:44;;;;;;;0.10;0.10;;;;;;;18.19;49.29;99972.45;1750176;81;21530;-46
2021/05/03 09:21:33;;;;;;;0.10;0.10;;;;;;;18.13;51.43;99974.63;1744710;81;21125;-47
2021/05/03 09:24:15;;;;;;;0.37;0.37;;;;;;;18.23;50.60;99973.39;1728412;81;21126;-47
2021/05/03 09:26:55;;;;;;;0.10;0.10;;;;;;;18.22;51.28;99975.91;1741600;81;21545;-46
2021/05/03 09:29:42;;;;;;;0.28;0.23;;;;;;;18.16;51.00;99976.70;1739137;81;21107;-47
2021/05/03 09:32:19;;;;;;;0.40;0.40;;;;;;;17.98;50.72;99987.14;1743034;81;21592;-46
2021/05/03 09:34:51;;;;;;;0.40;0.40;;;;;;;17.80;52.11;99996.73;1738684;81;21501;-46
2021/05/03 09:40:17;;;;;;;0.10;0.10;;;;;;;17.58;52.74;99983.50;1851439;76;22757;-46
2021/05/03 09:42:53;;;;;;;1.98;0.40;;;;;;;17.42;52.69;99983.86;1822314;78;21125;-46
2021/05/03 09:45:30;;;;;;;0.20;0.20;;;;;;;17.28;52.72;99987.45;1822251;77;21757;-46
2021/05/03 09:47:59;;;;;;;0.23;0.23;;;;;;;17.13;53.15;100000.69;1856180;77;21114;-46
2021/05/03 09:50:29;;;;;;;1.02;0.42;;;;;;;17.05;54.20;100015.95;1836444;77;21125;-46
2021/05/03 09:53:13;;;;;;;0.50;0.50;;;;;;;17.05;55.40;100014.56;1818563;77;21684;-46
2021/05/03 09:55:44;;;;;;;0.65;0.10;;;;;;;17.18;54.21;100017.09;1822628;78;21127;-46
2021/05/03 09:58:24;;;;;;;0.10;0.10;;;;;;;17.29;53.83;100017.50;1787279;78;21171;-46
2021/05/03 10:00:55;;;;;;;0.57;0.30;;;;;;;17.44;53.85;100033.25;1756762;81;21572;-46
2021/05/03 10:03:42;;;;;;;1.65;0.82;;;;;;;17.56;53.62;100024.45;1756937;81;21123;-46
2021/05/03 10:06:09;;;;;;;0.50;0.30;;;;;;;17.47;51.78;100018.77;1757075;81;21440;-46
2021/05/03 10:08:40;;;;;;;0.10;0.10;;;;;;;17.12;53.02;100014.84;1761278;80;21403;-46
2021/05/03 10:11:11;;;;;;;0.00;0.00;;;;;;;17.12;53.02;100014.84;1764867;81;21150;-46
2021/05/03 10:13:40;;;;;;;0.10;0.10;;;;;;;17.02;53.98;100027.66;1764774;81;21178;-46
2021/05/03 10:16:08;;;;;;;0.30;0.30;;;;;;;16.95;53.63;100011.61;1764391;81;21159;-46
2021/05/03 10:18:40;;;;;;;0.10;0.10;;;;;;;16.87;54.17;100034.55;1782587;80;21127;-46
2021/05/03 10:21:09;;;;;;;0.30;0.28;;;;;;;16.72;54.24;100044.16;1784827;80;21151;-46
2021/05/03 10:23:39;;;;;;;0.13;0.13;;;;;;;16.57;54.86;100034.47;1785027;80;21516;-46
2021/05/03 10:26:07;;;;;;;0.40;0.40;;;;;;;16.49;54.68;100035.29;1776316;79;20992;-46
2021/05/03 10:28:52;;;;;;;0.57;0.57;;;;;;;16.39;55.05;100063.22;1758218;80;21130;-46
2021/05/03 10:31:21;;;;;;;0.23;0.23;;;;;;;16.24;54.54;100068.11;1764799;79;21153;-46
2021/05/03 10:33:49;;;;;;;0.10;0.10;;;;;;;16.02;54.85;100091.72;1765435;80;21162;-45
2021/05/03 10:36:35;;;;;;;0.10;0.10;;;;;;;15.78;55.79;100108.75;1795541;79;21154;-45
2021/05/03 10:39:34;;;;;;;0.10;0.10;;;;;;;15.52;56.09;100118.30;1788532;79;21170;-45
2021/05/03 10:42:06;;;;;;;0.08;0.08;;;;;;;15.23;56.56;100112.78;1773053;80;21561;-45
2021/05/03 10:44:37;;;;;;;0.20;0.20;;;;;;;14.91;57.81;100103.77;1771939;79;21162;-46
2021/05/03 10:47:29;;;;;;;1.37;0.45;;;;;;;14.62;57.93;100128.45;1777643;80;21158;-45
2021/05/03 10:49:57;;;;;;;0.23;0.23;;;;;;;14.34;58.45;100148.91;1777834;80;21112;-45
2021/05/03 10:52:35;;;;;;;0.00;0.00;;;;;;;14.07;59.57;100141.58;1776502;80;21182;-45
2021/05/03 10:55:04;;;;;;;0.20;0.20;;;;;;;13.88;60.38;100135.69;1777294;79;21423;-46
2021/05/03 10:57:34;;;;;;;0.28;0.28;;;;;;;13.74;60.57;100136.27;1777532;80;21487;-45
2021/05/03 11:00:05;;;;;;;0.50;0.50;;;;;;;13.61;61.13;100128.88;1754104;79;21178;-45
2021/05/03 11:02:43;;;;;;;0.47;0.47;;;;;;;13.52;61.59;100130.15;1741166;80;21179;-46
2021/05/03 11:05:24;;;;;;;3.72;0.65;;;;;;;13.46;61.92;100128.64;1746522;82;21143;-46
2021/05/03 11:08:09;;;;;;;0.78;0.30;;;;;;;13.39;61.59;100135.11;1746600;82;21423;-45
2021/05/03 11:11:00;;;;;;;0.10;0.10;;;;;;;13.33;62.00;100158.53;1722151;80;21143;-45
2021/05/03 11:13:46;;;;;;;0.78;0.70;;;;;;;13.33;62.34;100157.16;1777323;79;21354;-45
2021/05/03 11:16:31;;;;;;;0.10;0.10;;;;;;;13.30;62.70;100160.52;1738482;81;21596;-46
2021/05/03 11:19:01;;;;;;;1.90;0.55;;;;;;;13.22;62.63;100157.06;1730260;82;21461;-46
2021/05/03 11:21:46;;;;;;;0.00;0.00;;;;;;;13.20;63.21;100138.72;1739846;80;21123;-46
2021/05/03 11:24:36;;;;;;;0.47;0.42;;;;;;;13.24;63.18;100119.17;1773518;80;20957;-46
2021/05/03 11:27:08;;;;;;;0.17;0.17;;;;;;;13.28;63.31;100110.63;1777187;80;21200;-46
2021/05/03 11:32:12;;;;;;;0.15;0.15;;;;;;;13.43;62.95;100095.77;1847621;76;22620;-46
2021/05/03 11:35:00;;;;;;;0.45;0.45;;;;;;;13.48;63.18;100105.27;1788384;78;21437;-46
2021/05/03 11:37:37;;;;;;;0.08;0.08;;;;;;;13.61;63.22;100110.47;1778799;80;21189;-45
2021/05/03 11:48:08;;;;;;;0.10;0.10;;;;;;;13.65;69.71;100071.69;1887349;76;22700;-45
2021/05/03 11:50:36;;;;;;;0.42;0.20;;;;;;;13.50;69.38;100078.86;1832705;77;21099;-46
2021/05/03 11:53:04;;;;;;;0.20;0.20;;;;;;;13.38;69.22;100070.34;1820597;78;21114;-46
2021/05/03 11:55:33;;;;;;;0.13;0.13;;;;;;;13.29;68.88;100060.09;1820517;78;21114;-46
2021/05/03 11:58:00;;;;;;;0.10;0.10;;;;;;;13.27;68.52;100043.69;1822047;77;21103;-46
2021/05/03 12:00:28;;;;;;;0.10;0.10;;;;;;;13.32;68.00;100034.78;1821658;77;21141;-46
2021/05/03 12:03:06;;;;;;;0.20;0.20;;;;;;;13.58;68.25;100038.34;1792139;77;21108;-46
2021/05/03 12:05:34;;;;;;;0.13;0.13;;;;;;;14.11;66.55;100041.73;1844994;77;21130;-46
2021/05/03 12:08:15;;;;;;;0.20;0.17;;;;;;;14.82;65.71;100050.08;1820844;78;21171;-46
2021/05/03 12:10:42;;;;;;;0.20;0.20;;;;;;;15.48;62.08;100041.84;1847411;77;21158;-46
2021/05/03 12:13:15;;;;;;;0.57;0.57;;;;;;;16.14;61.54;100039.50;1768613;80;21125;-46
2021/05/03 12:15:42;;;;;;;0.20;0.20;;;;;;;16.71;56.14;100039.19;1769270;79;21194;-46